< < Back
Terminal Aerodrome Forecast


Current Version              Previous Versions:   1  2  3  4  5  6  7  8  9  

Terminal Aerodrome Forecast

311
FTUS44 KBMX 271720
TAFANB
TAF
KANB 271720Z 2718/2818 08005KT P6SM SCT050
     FM280000 VRB03KT P6SM SCT250=

Latest METAR

780
SAUS70 KWBC 272200 RRH
MTRANB
METAR KANB 272153Z AUTO 11009KT 10SM CLR 34/17 A3001 RMK AO2 SLP148
T03440172


USA.gov is the U.S. government's official web portal to all federal, state and local government web resources and services.